sensor_id;sensor_type;location;lat;lon;timestamp;pressure;altitude;pressure_sealevel;temperature;humidity
64521;BME280;50896;46.714;17.322;2022-07-24T00:02:18;100569.88;;;24.64;62.19
64521;BME280;50896;46.714;17.322;2022-07-24T00:04:50;100581.97;;;24.56;61.56
64521;BME280;50896;46.714;17.322;2022-07-24T00:07:19;100591.63;;;24.47;61.28
64521;BME280;50896;46.714;17.322;2022-07-24T00:09:46;100597.50;;;24.39;62.73
64521;BME280;50896;46.714;17.322;2022-07-24T00:12:32;100596.84;;;24.32;62.56
64521;BME280;50896;46.714;17.322;2022-07-24T00:14:58;100611.50;;;24.31;61.66
64521;BME280;50896;46.714;17.322;2022-07-24T00:17:25;100602.06;;;24.16;61.73
64521;BME280;50896;46.714;17.322;2022-07-24T00:19:52;100593.66;;;24.18;62.09
64521;BME280;50896;46.714;17.322;2022-07-24T00:22:19;100590.56;;;24.09;62.54
64521;BME280;50896;46.714;17.322;2022-07-24T00:24:46;100590.56;;;24.09;62.82
64521;BME280;50896;46.714;17.322;2022-07-24T00:27:13;100582.91;;;24.06;62.23
64521;BME280;50896;46.714;17.322;2022-07-24T00:29:40;100573.03;;;24.00;61.62
64521;BME280;50896;46.714;17.322;2022-07-24T00:32:06;100578.94;;;23.97;62.23
64521;BME280;50896;46.714;17.322;2022-07-24T00:34:33;100580.84;;;23.96;61.65
64521;BME280;50896;46.714;17.322;2022-07-24T00:37:00;100575.00;;;23.87;63.26
64521;BME280;50896;46.714;17.322;2022-07-24T00:39:27;100549.41;;;23.83;62.82
64521;BME280;50896;46.714;17.322;2022-07-24T00:41:54;100536.16;;;23.87;62.02
64521;BME280;50896;46.714;17.322;2022-07-24T00:44:21;100556.00;;;23.87;61.32
64521;BME280;50896;46.714;17.322;2022-07-24T00:46:48;100557.41;;;23.90;62.16
64521;BME280;50896;46.714;17.322;2022-07-24T00:49:17;100558.25;;;23.91;63.00
64521;BME280;50896;46.714;17.322;2022-07-24T00:51:50;100552.22;;;23.88;63.72
64521;BME280;50896;46.714;17.322;2022-07-24T00:54:19;100568.16;;;23.85;64.25
64521;BME280;50896;46.714;17.322;2022-07-24T00:56:51;100563.38;;;23.75;65.27
64521;BME280;50896;46.714;17.322;2022-07-24T00:59:19;100550.69;;;23.64;65.09
64521;BME280;50896;46.714;17.322;2022-07-24T01:01:47;100538.53;;;23.66;65.10
64521;BME280;50896;46.714;17.322;2022-07-24T01:04:14;100542.16;;;23.72;64.08
64521;BME280;50896;46.714;17.322;2022-07-24T01:06:42;100528.91;;;23.76;61.00
64521;BME280;50896;46.714;17.322;2022-07-24T01:09:09;100520.78;;;23.76;62.30
64521;BME280;50896;46.714;17.322;2022-07-24T01:11:38;100508.03;;;23.76;60.32
64521;BME280;50896;46.714;17.322;2022-07-24T01:14:05;100503.19;;;23.78;62.14
64521;BME280;50896;46.714;17.322;2022-07-24T01:16:34;100511.06;;;23.80;62.45
64521;BME280;50896;46.714;17.322;2022-07-24T01:19:02;100521.53;;;23.88;61.68
64521;BME280;50896;46.714;17.322;2022-07-24T01:21:30;100518.31;;;23.74;64.18
64521;BME280;50896;46.714;17.322;2022-07-24T01:23:57;100512.22;;;23.67;65.60
64521;BME280;50896;46.714;17.322;2022-07-24T01:26:24;100504.66;;;23.69;65.92
64521;BME280;50896;46.714;17.322;2022-07-24T01:28:51;100493.25;;;23.67;66.36
64521;BME280;50896;46.714;17.322;2022-07-24T01:31:18;100486.06;;;23.61;66.56
64521;BME280;50896;46.714;17.322;2022-07-24T01:33:45;100495.44;;;23.70;65.88
64521;BME280;50896;46.714;17.322;2022-07-24T01:36:11;100491.59;;;23.66;65.85
64521;BME280;50896;46.714;17.322;2022-07-24T01:38:38;100487.22;;;23.65;67.07
64521;BME280;50896;46.714;17.322;2022-07-24T01:41:05;100492.25;;;23.56;67.95
64521;BME280;50896;46.714;17.322;2022-07-24T01:43:32;100497.28;;;23.47;68.78
64521;BME280;50896;46.714;17.322;2022-07-24T01:45:59;100503.25;;;23.49;68.83
64521;BME280;50896;46.714;17.322;2022-07-24T01:48:25;100503.16;;;23.44;68.79
64521;BME280;50896;46.714;17.322;2022-07-24T01:50:52;100496.00;;;23.21;70.05
64521;BME280;50896;46.714;17.322;2022-07-24T01:53:19;100497.56;;;23.17;70.21
64521;BME280;50896;46.714;17.322;2022-07-24T01:55:49;100507.94;;;23.37;69.82
64521;BME280;50896;46.714;17.322;2022-07-24T01:58:16;100513.22;;;23.44;69.67
64521;BME280;50896;46.714;17.322;2022-07-24T02:00:44;100527.38;;;23.46;69.76
64521;BME280;50896;46.714;17.322;2022-07-24T02:03:11;100522.75;;;23.46;69.94
64521;BME280;50896;46.714;17.322;2022-07-24T02:05:38;100538.22;;;23.46;67.43
64521;BME280;50896;46.714;17.322;2022-07-24T02:08:05;100544.81;;;23.21;70.33
64521;BME280;50896;46.714;17.322;2022-07-24T02:10:32;100551.09;;;23.10;69.79
64521;BME280;50896;46.714;17.322;2022-07-24T02:12:59;100550.50;;;23.08;69.75
64521;BME280;50896;46.714;17.322;2022-07-24T02:15:26;100552.16;;;23.09;69.15
64521;BME280;50896;46.714;17.322;2022-07-24T02:17:57;100556.41;;;23.16;68.93
64521;BME280;50896;46.714;17.322;2022-07-24T02:20:25;100554.25;;;23.18;68.98
64521;BME280;50896;46.714;17.322;2022-07-24T02:22:53;100554.13;;;23.25;68.21
64521;BME280;50896;46.714;17.322;2022-07-24T02:25:20;100559.19;;;23.21;67.18
64521;BME280;50896;46.714;17.322;2022-07-24T02:27:47;100557.88;;;23.24;67.21
64521;BME280;50896;46.714;17.322;2022-07-24T02:30:18;100556.06;;;23.13;68.20
64521;BME280;50896;46.714;17.322;2022-07-24T02:32:45;100554.25;;;23.18;67.97
64521;BME280;50896;46.714;17.322;2022-07-24T02:35:12;100539.53;;;23.14;66.57
64521;BME280;50896;46.714;17.322;2022-07-24T02:37:40;100542.13;;;23.09;67.81
64521;BME280;50896;46.714;17.322;2022-07-24T02:40:09;100538.59;;;23.09;68.66
64521;BME280;50896;46.714;17.322;2022-07-24T02:42:37;100544.16;;;23.02;69.64
64521;BME280;50896;46.714;17.322;2022-07-24T02:45:05;100536.91;;;22.91;69.38
64521;BME280;50896;46.714;17.322;2022-07-24T02:47:32;100540.66;;;22.90;69.87
64521;BME280;50896;46.714;17.322;2022-07-24T02:49:59;100542.13;;;22.80;70.86
64521;BME280;50896;46.714;17.322;2022-07-24T02:52:26;100543.44;;;22.78;70.48
64521;BME280;50896;46.714;17.322;2022-07-24T02:54:52;100545.78;;;22.74;70.16
64521;BME280;50896;46.714;17.322;2022-07-24T02:57:19;100546.72;;;22.80;69.57
64521;BME280;50896;46.714;17.322;2022-07-24T02:59:46;100557.72;;;22.73;70.93
64521;BME280;50896;46.714;17.322;2022-07-24T03:02:18;100563.44;;;22.77;71.11
64521;BME280;50896;46.714;17.322;2022-07-24T03:04:46;100570.63;;;22.83;71.81
64521;BME280;50896;46.714;17.322;2022-07-24T03:07:13;100582.06;;;22.85;71.24
64521;BME280;50896;46.714;17.322;2022-07-24T03:09:40;100575.91;;;22.90;71.38
64521;BME280;50896;46.714;17.322;2022-07-24T03:12:07;100589.94;;;22.86;71.84
64521;BME280;50896;46.714;17.322;2022-07-24T03:14:34;100598.06;;;22.86;71.85
64521;BME280;50896;46.714;17.322;2022-07-24T03:17:03;100603.72;;;22.85;72.36
64521;BME280;50896;46.714;17.322;2022-07-24T03:19:33;100593.69;;;22.85;71.75
64521;BME280;50896;46.714;17.322;2022-07-24T03:22:05;100591.72;;;22.81;70.30
64521;BME280;50896;46.714;17.322;2022-07-24T03:24:33;100595.34;;;22.86;70.35
64521;BME280;50896;46.714;17.322;2022-07-24T03:27:01;100604.34;;;22.75;71.16
64521;BME280;50896;46.714;17.322;2022-07-24T03:29:31;100614.94;;;22.77;72.02
64521;BME280;50896;46.714;17.322;2022-07-24T03:32:11;100615.75;;;22.77;72.00
64521;BME280;50896;46.714;17.322;2022-07-24T03:34:39;100619.19;;;22.73;72.30
64521;BME280;50896;46.714;17.322;2022-07-24T03:37:10;100616.47;;;22.84;71.67
64521;BME280;50896;46.714;17.322;2022-07-24T03:39:38;100623.31;;;22.75;71.86
64521;BME280;50896;46.714;17.322;2022-07-24T03:42:06;100635.59;;;22.42;73.58
64521;BME280;50896;46.714;17.322;2022-07-24T03:44:34;100629.09;;;22.43;73.57
64521;BME280;50896;46.714;17.322;2022-07-24T03:47:04;100636.28;;;22.38;73.84
64521;BME280;50896;46.714;17.322;2022-07-24T03:49:34;100642.31;;;22.51;72.56
64521;BME280;50896;46.714;17.322;2022-07-24T03:52:02;100649.97;;;22.43;73.76
64521;BME280;50896;46.714;17.322;2022-07-24T03:54:31;100651.50;;;22.39;73.60
64521;BME280;50896;46.714;17.322;2022-07-24T03:56:58;100650.63;;;22.26;74.53
64521;BME280;50896;46.714;17.322;2022-07-24T03:59:29;100652.53;;;22.38;74.22
64521;BME280;50896;46.714;17.322;2022-07-24T04:01:56;100667.97;;;22.37;74.55
64521;BME280;50896;46.714;17.322;2022-07-24T04:04:24;100678.22;;;22.35;74.63
64521;BME280;50896;46.714;17.322;2022-07-24T04:06:56;100681.22;;;22.27;74.80
64521;BME280;50896;46.714;17.322;2022-07-24T04:09:23;100681.03;;;22.40;73.86
64521;BME280;50896;46.714;17.322;2022-07-24T04:11:59;100681.00;;;22.16;75.10
64521;BME280;50896;46.714;17.322;2022-07-24T04:14:29;100688.63;;;22.19;74.66
64521;BME280;50896;46.714;17.322;2022-07-24T04:17:02;100694.19;;;22.25;74.51
64521;BME280;50896;46.714;17.322;2022-07-24T04:19:33;100687.06;;;22.00;75.95
64521;BME280;50896;46.714;17.322;2022-07-24T04:22:03;100691.44;;;22.13;74.88
64521;BME280;50896;46.714;17.322;2022-07-24T04:24:33;100689.69;;;22.18;75.16
64521;BME280;50896;46.714;17.322;2022-07-24T04:27:03;100702.19;;;22.19;75.07
64521;BME280;50896;46.714;17.322;2022-07-24T04:29:31;100695.91;;;22.07;75.82
64521;BME280;50896;46.714;17.322;2022-07-24T04:31:59;100704.97;;;22.13;75.43
64521;BME280;50896;46.714;17.322;2022-07-24T04:34:27;100709.78;;;21.99;75.63
64521;BME280;50896;46.714;17.322;2022-07-24T04:36:55;100710.47;;;21.94;76.03
64521;BME280;50896;46.714;17.322;2022-07-24T04:39:22;100708.78;;;21.81;76.42
64521;BME280;50896;46.714;17.322;2022-07-24T04:41:48;100721.44;;;21.99;76.35
64521;BME280;50896;46.714;17.322;2022-07-24T04:44:15;100730.63;;;22.10;76.73
64521;BME280;50896;46.714;17.322;2022-07-24T04:46:42;100733.22;;;22.05;78.05
64521;BME280;50896;46.714;17.322;2022-07-24T04:49:10;100742.31;;;22.11;77.91
64521;BME280;50896;46.714;17.322;2022-07-24T04:54:03;100750.00;;;22.26;78.04
64521;BME280;50896;46.714;17.322;2022-07-24T04:56:30;100745.53;;;22.31;77.36
64521;BME280;50896;46.714;17.322;2022-07-24T04:58:59;100746.06;;;22.40;76.33
64521;BME280;50896;46.714;17.322;2022-07-24T05:01:29;100749.94;;;22.44;76.25
64521;BME280;50896;46.714;17.322;2022-07-24T05:03:56;100745.34;;;22.45;75.08
64521;BME280;50896;46.714;17.322;2022-07-24T05:06:25;100745.00;;;22.41;75.46
64521;BME280;50896;46.714;17.322;2022-07-24T05:08:52;100748.19;;;22.50;75.72
64521;BME280;50896;46.714;17.322;2022-07-24T05:11:19;100747.72;;;22.53;75.16
64521;BME280;50896;46.714;17.322;2022-07-24T05:13:46;100753.84;;;22.48;75.15
64521;BME280;50896;46.714;17.322;2022-07-24T05:16:12;100755.25;;;22.51;74.57
64521;BME280;50896;46.714;17.322;2022-07-24T05:18:39;100763.88;;;22.60;75.25
64521;BME280;50896;46.714;17.322;2022-07-24T05:21:06;100768.72;;;22.69;75.19
64521;BME280;50896;46.714;17.322;2022-07-24T05:23:33;100777.06;;;22.68;75.66
64521;BME280;50896;46.714;17.322;2022-07-24T05:26:00;100772.34;;;22.75;75.63
64521;BME280;50896;46.714;17.322;2022-07-24T05:28:27;100774.03;;;22.76;75.79
64521;BME280;50896;46.714;17.322;2022-07-24T05:30:54;100779.44;;;22.76;75.42
64521;BME280;50896;46.714;17.322;2022-07-24T05:33:21;100789.31;;;22.82;74.81
64521;BME280;50896;46.714;17.322;2022-07-24T05:35:49;100790.50;;;22.86;74.67
64521;BME280;50896;46.714;17.322;2022-07-24T05:38:16;100792.50;;;22.79;73.69
64521;BME280;50896;46.714;17.322;2022-07-24T05:40:43;100792.16;;;22.87;74.11
64521;BME280;50896;46.714;17.322;2022-07-24T05:43:11;100799.13;;;22.83;74.50
64521;BME280;50896;46.714;17.322;2022-07-24T05:45:39;100794.97;;;22.81;73.61
64521;BME280;50896;46.714;17.322;2022-07-24T05:48:05;100795.22;;;22.79;73.40
64521;BME280;50896;46.714;17.322;2022-07-24T05:50:32;100791.47;;;22.80;73.95
64521;BME280;50896;46.714;17.322;2022-07-24T05:52:59;100787.34;;;22.78;74.15
64521;BME280;50896;46.714;17.322;2022-07-24T05:55:26;100786.84;;;22.81;73.71
64521;BME280;50896;46.714;17.322;2022-07-24T05:57:54;100796.41;;;22.83;73.61
64521;BME280;50896;46.714;17.322;2022-07-24T06:00:21;100800.53;;;22.98;73.73
64521;BME280;50896;46.714;17.322;2022-07-24T06:02:49;100799.00;;;23.02;72.63
64521;BME280;50896;46.714;17.322;2022-07-24T06:05:16;100796.88;;;23.04;72.63
64521;BME280;50896;46.714;17.322;2022-07-24T06:07:43;100798.28;;;22.95;72.01
64521;BME280;50896;46.714;17.322;2022-07-24T06:10:11;100802.66;;;23.08;71.88
64521;BME280;50896;46.714;17.322;2022-07-24T06:12:41;100796.41;;;23.07;72.47
64521;BME280;50896;46.714;17.322;2022-07-24T06:15:10;100797.94;;;23.15;72.18
64521;BME280;50896;46.714;17.322;2022-07-24T06:17:37;100792.53;;;23.27;71.69
64521;BME280;50896;46.714;17.322;2022-07-24T06:20:05;100790.63;;;23.39;71.31
64521;BME280;50896;46.714;17.322;2022-07-24T06:22:32;100795.09;;;23.45;71.51
64521;BME280;50896;46.714;17.322;2022-07-24T06:24:59;100791.66;;;23.62;70.53
64521;BME280;50896;46.714;17.322;2022-07-24T06:27:25;100786.09;;;23.68;70.04
64521;BME280;50896;46.714;17.322;2022-07-24T06:29:52;100792.31;;;23.69;69.30
64521;BME280;50896;46.714;17.322;2022-07-24T06:32:19;100790.75;;;23.85;68.54
64521;BME280;50896;46.714;17.322;2022-07-24T06:34:46;100787.78;;;23.86;68.93
64521;BME280;50896;46.714;17.322;2022-07-24T06:37:13;100784.03;;;23.87;67.86
64521;BME280;50896;46.714;17.322;2022-07-24T06:39:39;100779.97;;;24.02;67.69
64521;BME280;50896;46.714;17.322;2022-07-24T06:42:06;100777.31;;;24.07;66.90
64521;BME280;50896;46.714;17.322;2022-07-24T06:44:35;100774.41;;;24.09;67.45
64521;BME280;50896;46.714;17.322;2022-07-24T06:47:02;100770.94;;;24.13;66.59
64521;BME280;50896;46.714;17.322;2022-07-24T06:49:29;100769.50;;;24.22;66.31
64521;BME280;50896;46.714;17.322;2022-07-24T06:51:56;100766.28;;;24.26;66.39
64521;BME280;50896;46.714;17.322;2022-07-24T06:54:23;100766.44;;;24.36;65.78
64521;BME280;50896;46.714;17.322;2022-07-24T06:56:50;100767.69;;;24.28;65.87
64521;BME280;50896;46.714;17.322;2022-07-24T06:59:18;100775.34;;;24.31;66.16
64521;BME280;50896;46.714;17.322;2022-07-24T07:01:44;100778.56;;;24.45;65.61
64521;BME280;50896;46.714;17.322;2022-07-24T07:04:11;100778.47;;;24.57;65.15
64521;BME280;50896;46.714;17.322;2022-07-24T07:06:38;100774.59;;;24.53;65.03
64521;BME280;50896;46.714;17.322;2022-07-24T07:09:09;100771.84;;;24.65;63.75
64521;BME280;50896;46.714;17.322;2022-07-24T07:11:37;100771.81;;;24.48;64.02
64521;BME280;50896;46.714;17.322;2022-07-24T07:14:04;100771.97;;;24.41;64.28
64521;BME280;50896;46.714;17.322;2022-07-24T07:16:30;100775.00;;;24.45;64.98
64521;BME280;50896;46.714;17.322;2022-07-24T07:18:57;100763.41;;;24.49;64.57
64521;BME280;50896;46.714;17.322;2022-07-24T07:21:24;100757.00;;;24.72;63.52
64521;BME280;50896;46.714;17.322;2022-07-24T07:23:51;100750.53;;;24.96;62.73
64521;BME280;50896;46.714;17.322;2022-07-24T07:26:19;100754.66;;;24.98;62.10
64521;BME280;50896;46.714;17.322;2022-07-24T07:28:46;100746.38;;;25.10;61.76
64521;BME280;50896;46.714;17.322;2022-07-24T07:31:13;100753.94;;;25.25;61.14
64521;BME280;50896;46.714;17.322;2022-07-24T07:33:40;100752.34;;;25.29;61.43
64521;BME280;50896;46.714;17.322;2022-07-24T07:36:07;100752.53;;;25.22;60.08
64521;BME280;50896;46.714;17.322;2022-07-24T07:38:35;100751.81;;;25.27;60.37
64521;BME280;50896;46.714;17.322;2022-07-24T07:41:05;100744.59;;;25.38;60.39
64521;BME280;50896;46.714;17.322;2022-07-24T07:43:36;100755.28;;;25.45;60.29
64521;BME280;50896;46.714;17.322;2022-07-24T07:46:03;100754.09;;;25.57;60.47
64521;BME280;50896;46.714;17.322;2022-07-24T07:48:30;100746.53;;;25.65;60.56
64521;BME280;50896;46.714;17.322;2022-07-24T07:50:58;100743.34;;;25.68;60.57
64521;BME280;50896;46.714;17.322;2022-07-24T07:53:25;100748.50;;;25.69;59.72
64521;BME280;50896;46.714;17.322;2022-07-24T07:55:51;100747.81;;;25.79;60.02
64521;BME280;50896;46.714;17.322;2022-07-24T07:58:19;100750.53;;;25.79;59.82
64521;BME280;50896;46.714;17.322;2022-07-24T08:00:46;100753.53;;;25.83;59.47
64521;BME280;50896;46.714;17.322;2022-07-24T08:03:13;100746.31;;;25.93;59.80
64521;BME280;50896;46.714;17.322;2022-07-24T08:05:47;100749.22;;;26.09;57.93
64521;BME280;50896;46.714;17.322;2022-07-24T08:08:14;100745.69;;;26.08;58.60
64521;BME280;50896;46.714;17.322;2022-07-24T08:10:41;100747.09;;;26.16;58.71
64521;BME280;50896;46.714;17.322;2022-07-24T08:13:08;100755.25;;;26.16;57.54
64521;BME280;50896;46.714;17.322;2022-07-24T08:15:35;100751.72;;;26.16;58.91
64521;BME280;50896;46.714;17.322;2022-07-24T08:18:01;100747.63;;;26.13;58.36
64521;BME280;50896;46.714;17.322;2022-07-24T08:20:28;100750.69;;;26.22;58.16
64521;BME280;50896;46.714;17.322;2022-07-24T08:22:55;100749.41;;;26.30;58.13
64521;BME280;50896;46.714;17.322;2022-07-24T08:25:24;100743.81;;;26.47;58.64
64521;BME280;50896;46.714;17.322;2022-07-24T08:27:51;100747.94;;;26.49;57.58
64521;BME280;50896;46.714;17.322;2022-07-24T08:30:18;100741.78;;;26.32;58.30
64521;BME280;50896;46.714;17.322;2022-07-24T08:32:45;100754.53;;;26.26;56.99
64521;BME280;50896;46.714;17.322;2022-07-24T08:35:12;100749.56;;;26.18;57.85
64521;BME280;50896;46.714;17.322;2022-07-24T08:37:40;100745.88;;;26.29;59.59
64521;BME280;50896;46.714;17.322;2022-07-24T08:40:08;100750.34;;;26.46;59.30
64521;BME280;50896;46.714;17.322;2022-07-24T08:42:36;100750.84;;;26.70;58.40
64521;BME280;50896;46.714;17.322;2022-07-24T08:45:04;100749.25;;;26.79;58.00
64521;BME280;50896;46.714;17.322;2022-07-24T08:47:31;100751.75;;;26.81;57.41
64521;BME280;50896;46.714;17.322;2022-07-24T08:50:01;100747.63;;;26.78;56.75
64521;BME280;50896;46.714;17.322;2022-07-24T08:52:31;100750.09;;;26.85;56.07
64521;BME280;50896;46.714;17.322;2022-07-24T08:54:59;100754.69;;;26.79;55.85
64521;BME280;50896;46.714;17.322;2022-07-24T08:57:26;100757.19;;;26.86;55.38
64521;BME280;50896;46.714;17.322;2022-07-24T08:59:53;100745.22;;;26.87;55.36
64521;BME280;50896;46.714;17.322;2022-07-24T09:02:20;100749.88;;;26.86;56.02
64521;BME280;50896;46.714;17.322;2022-07-24T09:04:47;100752.38;;;26.98;55.67
64521;BME280;50896;46.714;17.322;2022-07-24T09:07:16;100752.91;;;26.95;55.75
64521;BME280;50896;46.714;17.322;2022-07-24T09:10:00;100764.63;;;26.95;55.40
64521;BME280;50896;46.714;17.322;2022-07-24T09:12:36;100763.84;;;27.00;54.76
64521;BME280;50896;46.714;17.322;2022-07-24T09:15:17;100763.00;;;27.00;54.95
64521;BME280;50896;46.714;17.322;2022-07-24T09:17:55;100751.34;;;27.09;55.05
64521;BME280;50896;46.714;17.322;2022-07-24T09:20:25;100750.00;;;27.12;53.58
64521;BME280;50896;46.714;17.322;2022-07-24T09:22:57;100756.88;;;27.20;52.69
64521;BME280;50896;46.714;17.322;2022-07-24T09:25:33;100749.53;;;27.31;52.77
64521;BME280;50896;46.714;17.322;2022-07-24T09:28:02;100752.03;;;27.37;52.45
64521;BME280;50896;46.714;17.322;2022-07-24T09:32:59;100746.88;;;27.46;51.35
64521;BME280;50896;46.714;17.322;2022-07-24T09:35:53;100749.72;;;27.72;53.46
64521;BME280;50896;46.714;17.322;2022-07-24T09:38:24;100753.53;;;27.76;49.15
64521;BME280;50896;46.714;17.322;2022-07-24T09:40:54;100751.41;;;27.88;50.92
64521;BME280;50896;46.714;17.322;2022-07-24T09:43:27;100750.88;;;28.02;50.13
64521;BME280;50896;46.714;17.322;2022-07-24T09:46:06;100742.91;;;27.95;49.07
64521;BME280;50896;46.714;17.322;2022-07-24T09:48:37;100748.72;;;28.04;50.29
64521;BME280;50896;46.714;17.322;2022-07-24T09:51:15;100749.00;;;28.12;50.71
64521;BME280;50896;46.714;17.322;2022-07-24T09:53:44;100751.72;;;28.07;50.88
64521;BME280;50896;46.714;17.322;2022-07-24T09:56:16;100750.06;;;28.01;46.92
64521;BME280;50896;46.714;17.322;2022-07-24T10:01:15;100753.31;;;27.98;48.90
64521;BME280;50896;46.714;17.322;2022-07-24T10:03:44;100747.59;;;28.05;46.84
64521;BME280;50896;46.714;17.322;2022-07-24T10:06:13;100754.16;;;28.09;46.95
64521;BME280;50896;46.714;17.322;2022-07-24T10:08:43;100754.16;;;28.09;47.21
64521;BME280;50896;46.714;17.322;2022-07-24T10:11:10;100744.63;;;28.06;48.35
64521;BME280;50896;46.714;17.322;2022-07-24T10:13:38;100751.44;;;28.14;48.11
64521;BME280;50896;46.714;17.322;2022-07-24T10:18:51;100745.97;;;28.24;49.00
64521;BME280;50896;46.714;17.322;2022-07-24T10:26:45;100751.44;;;28.45;48.65
64521;BME280;50896;46.714;17.322;2022-07-24T10:29:18;100751.72;;;28.48;47.27
64521;BME280;50896;46.714;17.322;2022-07-24T10:31:48;100754.72;;;28.52;47.19
64521;BME280;50896;46.714;17.322;2022-07-24T10:34:43;100754.47;;;28.48;46.89
64521;BME280;50896;46.714;17.322;2022-07-24T10:45:40;100745.19;;;28.65;41.20
64521;BME280;50896;46.714;17.322;2022-07-24T10:48:29;100743.81;;;28.68;42.83
64521;BME280;50896;46.714;17.322;2022-07-24T10:53:25;100739.41;;;28.82;43.21
64521;BME280;50896;46.714;17.322;2022-07-24T10:55:52;100732.84;;;28.83;43.41
64521;BME280;50896;46.714;17.322;2022-07-24T10:58:21;100725.16;;;28.90;43.49
64521;BME280;50896;46.714;17.322;2022-07-24T11:00:51;100725.69;;;28.97;42.55
64521;BME280;50896;46.714;17.322;2022-07-24T11:03:23;100726.50;;;28.98;42.76
64521;BME280;50896;46.714;17.322;2022-07-24T11:06:05;100710.88;;;29.04;41.61
64521;BME280;50896;46.714;17.322;2022-07-24T11:08:37;100717.72;;;29.06;40.95
64521;BME280;50896;46.714;17.322;2022-07-24T11:11:07;100714.69;;;29.08;39.99
64521;BME280;50896;46.714;17.322;2022-07-24T11:16:23;100722.84;;;29.23;43.40
64521;BME280;50896;46.714;17.322;2022-07-24T11:21:31;100705.25;;;29.45;42.53
64521;BME280;50896;46.714;17.322;2022-07-24T11:26:56;100708.44;;;29.62;40.51
64521;BME280;50896;46.714;17.322;2022-07-24T11:29:31;100700.28;;;29.57;40.78
64521;BME280;50896;46.714;17.322;2022-07-24T11:34:38;100694.91;;;29.81;40.95
64521;BME280;50896;46.714;17.322;2022-07-24T11:37:05;100691.50;;;30.00;40.63
64521;BME280;50896;46.714;17.322;2022-07-24T11:39:41;100689.50;;;30.11;39.87
64521;BME280;50896;46.714;17.322;2022-07-24T11:42:10;100689.94;;;30.23;39.36
64521;BME280;50896;46.714;17.322;2022-07-24T11:44:48;100687.34;;;30.37;39.17
64521;BME280;50896;46.714;17.322;2022-07-24T11:47:21;100687.06;;;30.39;38.31
64521;BME280;50896;46.714;17.322;2022-07-24T11:49:52;100685.19;;;30.34;36.83
64521;BME280;50896;46.714;17.322;2022-07-24T11:54:50;100670.63;;;30.33;38.36
64521;BME280;50896;46.714;17.322;2022-07-24T11:57:21;100677.59;;;30.55;37.94
64521;BME280;50896;46.714;17.322;2022-07-24T12:00:12;100672.44;;;30.48;37.68
64521;BME280;50896;46.714;17.322;2022-07-24T12:02:45;100672.41;;;30.54;37.52
64521;BME280;50896;46.714;17.322;2022-07-24T12:05:13;100673.69;;;30.61;38.59
64521;BME280;50896;46.714;17.322;2022-07-24T12:07:40;100656.16;;;30.57;38.13
64521;BME280;50896;46.714;17.322;2022-07-24T12:10:07;100658.41;;;30.55;37.20
64521;BME280;50896;46.714;17.322;2022-07-24T12:12:37;100653.72;;;30.56;36.40
64521;BME280;50896;46.714;17.322;2022-07-24T12:15:13;100650.63;;;30.62;36.83
64521;BME280;50896;46.714;17.322;2022-07-24T12:17:57;100650.81;;;30.42;37.53
64521;BME280;50896;46.714;17.322;2022-07-24T12:20:42;100650.34;;;30.34;35.28
64521;BME280;50896;46.714;17.322;2022-07-24T12:23:14;100659.13;;;30.37;37.11
64521;BME280;50896;46.714;17.322;2022-07-24T12:25:44;100648.22;;;30.26;37.07
64521;BME280;50896;46.714;17.322;2022-07-24T12:28:15;100649.84;;;30.32;36.23
64521;BME280;50896;46.714;17.322;2022-07-24T12:35:58;100639.22;;;29.91;37.43
64521;BME280;50896;46.714;17.322;2022-07-24T12:38:34;100634.13;;;29.74;39.50
64521;BME280;50896;46.714;17.322;2022-07-24T12:41:12;100641.50;;;29.79;36.87
64521;BME280;50896;46.714;17.322;2022-07-24T12:46:34;100630.44;;;29.94;36.63
64521;BME280;50896;46.714;17.322;2022-07-24T12:49:11;100637.50;;;30.00;38.12
64521;BME280;50896;46.714;17.322;2022-07-24T12:51:55;100620.00;;;29.96;36.02
64521;BME280;50896;46.714;17.322;2022-07-24T12:54:24;100621.06;;;30.00;36.33
64521;BME280;50896;46.714;17.322;2022-07-24T12:56:54;100623.28;;;29.98;39.33
64521;BME280;50896;46.714;17.322;2022-07-24T12:59:31;100619.53;;;29.89;35.39
64521;BME280;50896;46.714;17.322;2022-07-24T13:02:17;100609.66;;;29.83;34.90
64521;BME280;50896;46.714;17.322;2022-07-24T13:04:48;100617.31;;;29.91;37.42
64521;BME280;50896;46.714;17.322;2022-07-24T13:07:21;100621.09;;;29.95;37.36
64521;BME280;50896;46.714;17.322;2022-07-24T13:09:48;100612.31;;;29.98;38.05
64521;BME280;50896;46.714;17.322;2022-07-24T13:12:15;100604.69;;;29.90;36.58
64521;BME280;50896;46.714;17.322;2022-07-24T13:14:42;100615.66;;;29.90;36.18
64521;BME280;50896;46.714;17.322;2022-07-24T13:17:14;100604.16;;;29.93;36.86
64521;BME280;50896;46.714;17.322;2022-07-24T13:19:44;100611.50;;;29.98;37.51
64521;BME280;50896;46.714;17.322;2022-07-24T13:22:12;100601.13;;;29.95;36.51
64521;BME280;50896;46.714;17.322;2022-07-24T13:24:40;100605.25;;;29.92;36.22
64521;BME280;50896;46.714;17.322;2022-07-24T13:27:09;100603.28;;;29.98;35.18
64521;BME280;50896;46.714;17.322;2022-07-24T13:29:36;100597.00;;;29.97;35.70
64521;BME280;50896;46.714;17.322;2022-07-24T13:32:04;100594.47;;;30.01;35.68
64521;BME280;50896;46.714;17.322;2022-07-24T13:34:32;100595.03;;;30.03;36.69
64521;BME280;50896;46.714;17.322;2022-07-24T13:37:02;100586.53;;;29.99;35.71
64521;BME280;50896;46.714;17.322;2022-07-24T13:39:34;100586.88;;;29.93;36.27